San Antonio, TX (78247)

1:14 AM CDT on April 01, 2015 (GMT -0500)
Longs Creek | | Change Station
CLOSE
Current Station
Personal Weather Station
Location: San Antonio, TX
Elevation: 951 ft
Nearby Weather Stations

Elev 951 ft 29.59 °N, 98.41 °W | Updated 1 second ago

Overcast
Overcast
68.4 °F
Feels Like 68.4 °F
N
0.0
Wind Variable Wind from SE
Gusts 7.0 mph

Today
High -- | Low -- °F
--% Chance of Precip.
Yesterday
High -- | Low -- °F
Precip. -- in
7:23 AM 7:52 PM
Waxing Gibbous, 91% visible
Pressure 29.92 in
Visibility 6.0 miles
Clouds Overcast 500 ft
Dew Point 67 °F
Humidity 95%
Rainfall 0.00 in
Snow Depth Not available.
UV 0 out of 12
Pollen 10.40 out of 12
Air Quality Not available.
Flu Activity Not available.
METAR KSAT 010551Z 16008KT 6SM BR OVC005 21/19 A2996 RMK AO2 SLP130 T02110194 10244 20206 402500194 58000

More Conditions Fewer Conditions

Pressure 29.92 in
Visibility 6.0 miles
Clouds Overcast 500 ft
Dew Point 67 °F
Humidity 95%
Rainfall 0.00 in
Snow Depth Not available.
UV 0 out of 12
Pollen 10.40 out of 12
Air Quality Not available.
Flu Activity Not available.
METAR KSAT 010551Z 16008KT 6SM BR OVC005 21/19 A2996 RMK AO2 SLP130 T02110194 10244 20206 402500194 58000

More Conditions Fewer Conditions

10-Day Weather Forecast

Almanac

Astronomy

Apr. 01, 2015 Rise Set
Actual Time
Civil Twilight
Nautical Twilight
Astronomical Twilight
Moon
Length of Visible Light
Length of Day
Tomorrow will be .
, % of the Moon is Illuminated

Today's Extremes

State Highs State Lows

Community

WunderPhotos

Upload Photos

1,809,924 photos uploaded!

WunderBlogs® & News

Nearby

Air Quality

  Air Quality AQ Index Pollutant
Not available.

Snow Depth

Station Depth Elevation

Earthquake Activity

City Distance Mag. Time & Date
Minimum magnitude displayed is 2.5.

Coastal Water Temperatures

Place Temperature

Stations

Nearby Weather Stations

Station Location Temp. Windchill Dew Point Humidity Wind Precip. Elev Updated Type